Time;durP1;ratioP1;P1;durP2;ratioP2;P2;SDS_P1;SDS_P2;PMS_P1;PMS_P2;Temp;Humidity;BMP_temperature;BMP_pressure;BME280_temperature;BME280_humidity;BME280_pressure;Samples;Min_cycle;Max_cycle;Signal;HPM_P1;HPM_P2
2022/10/30 00:02:26;;;;;;;;;;;8.30;99.90;;;;;;4767709;30;20064;-79
2022/10/30 00:04:53;;;;;;;0.60;0.20;;;8.20;99.90;;;;;;4760785;30;19933;-78
2022/10/30 00:07:20;;;;;;;0.50;0.20;;;8.20;99.90;;;;;;4771436;30;20790;-79
2022/10/30 00:09:48;;;;;;;0.50;0.20;;;8.20;99.90;;;;;;4774924;29;20075;-79
2022/10/30 00:12:16;;;;;;;0.30;0.20;;;8.20;99.90;;;;;;4753567;30;20055;-80
2022/10/30 00:14:44;;;;;;;1.42;0.30;;;8.20;99.90;;;;;;4752354;30;20057;-80
2022/10/30 00:17:11;;;;;;;1.10;0.77;;;8.10;99.90;;;;;;4752390;30;20146;-79
2022/10/30 00:19:38;;;;;;;0.85;0.10;;;7.90;99.90;;;;;;4753296;30;20098;-78
2022/10/30 00:22:05;;;;;;;0.45;0.10;;;7.90;99.90;;;;;;4766490;30;20067;-78
2022/10/30 00:24:32;;;;;;;0.65;0.20;;;7.90;99.90;;;;;;4752002;30;20044;-79
2022/10/30 00:27:00;;;;;;;1.23;0.10;;;7.90;99.90;;;;;;4737404;30;20078;-78
2022/10/30 00:29:28;;;;;;;0.52;0.20;;;7.90;99.90;;;;;;4752730;30;20066;-78
2022/10/30 00:31:55;;;;;;;1.17;0.30;;;7.80;99.90;;;;;;4752445;30;20518;-81
2022/10/30 00:34:23;;;;;;;2.20;0.30;;;7.70;99.90;;;;;;4753000;30;20584;-80
2022/10/30 00:36:50;;;;;;;3.80;0.20;;;7.70;99.90;;;;;;4752945;30;20475;-78
2022/10/30 00:39:17;;;;;;;0.73;0.20;;;7.60;99.90;;;;;;4752914;30;20469;-79
2022/10/30 00:41:45;;;;;;;1.65;0.30;;;7.50;99.90;;;;;;4776217;30;20056;-80
2022/10/30 00:44:48;;;;;;;1.80;0.13;;;7.50;99.90;;;;;;4753061;30;20498;-80
2022/10/30 00:47:20;;;;;;;0.63;0.20;;;7.40;99.90;;;;;;4715850;30;20570;-78
2022/10/30 00:49:52;;;;;;;3.53;0.22;;;7.30;99.90;;;;;;4714664;30;20099;-78
2022/10/30 00:52:22;;;;;;;0.20;0.20;;;7.30;99.90;;;;;;4735268;30;20430;-78
2022/10/30 00:54:50;;;;;;;0.15;0.10;;;7.20;99.90;;;;;;4766270;30;20064;-78
2022/10/30 00:57:18;;;;;;;0.70;0.10;;;7.20;99.90;;;;;;4751485;30;20518;-78
2022/10/30 00:59:47;;;;;;;0.20;0.10;;;7.20;99.90;;;;;;4775203;30;20066;-78
2022/10/30 01:02:16;;;;;;;0.08;0.00;;;7.10;99.90;;;;;;4770273;30;20117;-79
2022/10/30 01:04:44;;;;;;;0.47;0.10;;;7.20;99.90;;;;;;4769275;30;20514;-78
2022/10/30 01:07:15;;;;;;;0.28;0.10;;;7.10;99.90;;;;;;4783072;30;20067;-78
2022/10/30 01:09:42;;;;;;;0.25;0.10;;;7.10;99.90;;;;;;4777922;30;20478;-77
2022/10/30 01:12:10;;;;;;;0.20;0.20;;;7.10;99.90;;;;;;4751030;30;20632;-77
2022/10/30 01:14:44;;;;;;;1.08;0.20;;;7.00;99.90;;;;;;4765968;30;20106;-78
2022/10/30 01:17:36;;;;;;;0.30;0.10;;;7.10;99.90;;;;;;4765581;30;20056;-78
2022/10/30 01:20:19;;;;;;;0.28;0.13;;;7.00;99.90;;;;;;4751746;30;20071;-78
2022/10/30 01:23:01;;;;;;;0.20;0.20;;;7.00;99.90;;;;;;4752227;30;20556;-78
2022/10/30 01:25:44;;;;;;;1.00;0.20;;;7.00;99.90;;;;;;4738617;30;20156;-79
2022/10/30 01:28:27;;;;;;;3.72;0.30;;;7.00;99.90;;;;;;4769181;30;20560;-80
2022/10/30 01:31:11;;;;;;;0.98;0.60;;;6.90;99.90;;;;;;4768610;30;20492;-79
2022/10/30 01:33:53;;;;;;;0.38;0.13;;;6.90;99.90;;;;;;4759603;30;20052;-79
2022/10/30 01:36:26;;;;;;;0.22;0.13;;;6.90;99.90;;;;;;4765738;30;20541;-79
2022/10/30 01:38:55;;;;;;;;;;;6.80;99.90;;;;;;4754954;30;20568;-79
2022/10/30 01:41:23;;;;;;;1.33;0.35;;;6.90;99.90;;;;;;4765595;30;19957;-80
2022/10/30 01:43:54;;;;;;;0.10;0.10;;;6.90;99.90;;;;;;4765128;30;20064;-78
2022/10/30 01:46:51;;;;;;;2.67;0.30;;;7.00;99.90;;;;;;4735754;30;20501;-77
2022/10/30 01:49:49;;;;;;;0.38;0.28;;;7.00;99.90;;;;;;4751459;30;20059;-78
2022/10/30 01:52:23;;;;;;;0.20;0.20;;;7.10;99.90;;;;;;4749072;30;20098;-77
2022/10/30 01:54:58;;;;;;;0.63;0.28;;;7.20;99.90;;;;;;4750416;30;20063;-77
2022/10/30 01:57:34;;;;;;;0.20;0.10;;;7.30;99.90;;;;;;4760309;30;20051;-77
2022/10/30 02:00:05;;;;;;;0.85;0.10;;;7.30;99.90;;;;;;4783434;30;20056;-78
2022/10/30 02:02:40;;;;;;;1.02;0.10;;;7.40;99.90;;;;;;4758922;30;20064;-78
2022/10/30 02:05:20;;;;;;;0.10;0.10;;;7.40;99.90;;;;;;4753070;30;20059;-78
2022/10/30 02:07:48;;;;;;;2.63;0.22;;;7.40;99.90;;;;;;4783048;30;20135;-79
2022/10/30 02:10:15;;;;;;;2.67;0.20;;;7.40;99.90;;;;;;4767903;30;20059;-79
2022/10/30 02:12:43;;;;;;;1.92;0.10;;;7.40;99.90;;;;;;4752133;30;20058;-79
2022/10/30 02:15:12;;;;;;;0.75;0.40;;;7.50;99.90;;;;;;4767566;30;20055;-79
2022/10/30 02:17:40;;;;;;;0.10;0.10;;;7.50;99.90;;;;;;4782647;30;20060;-78
2022/10/30 02:20:08;;;;;;;0.47;0.10;;;7.50;99.90;;;;;;4764199;30;20048;-80
2022/10/30 02:22:37;;;;;;;1.75;0.10;;;7.50;99.90;;;;;;4764932;30;20150;-79
2022/10/30 02:25:05;;;;;;;0.38;0.15;;;7.50;99.90;;;;;;4751555;30;20075;-79
2022/10/30 02:27:32;;;;;;;0.17;0.17;;;7.50;99.90;;;;;;4764373;30;20110;-78
2022/10/30 02:29:59;;;;;;;1.38;0.20;;;7.50;99.90;;;;;;4772204;30;20092;-78
2022/10/30 02:32:28;;;;;;;4.05;0.68;;;7.50;99.90;;;;;;4764614;30;20052;-78
2022/10/30 02:34:55;;;;;;;0.22;0.20;;;7.50;99.90;;;;;;4765679;30;20142;-77
2022/10/30 02:37:23;;;;;;;1.40;0.20;;;7.50;99.90;;;;;;4767597;30;20055;-78
2022/10/30 02:39:52;;;;;;;0.57;0.20;;;7.40;99.90;;;;;;4766823;30;20489;-78
2022/10/30 02:42:19;;;;;;;0.38;0.10;;;7.40;99.90;;;;;;4768272;30;20051;-78
2022/10/30 02:44:46;;;;;;;0.28;0.20;;;7.40;99.90;;;;;;4767616;30;20496;-78
2022/10/30 02:47:14;;;;;;;0.63;0.20;;;7.30;99.90;;;;;;4766487;30;20056;-78
2022/10/30 02:49:41;;;;;;;0.20;0.10;;;7.30;99.90;;;;;;4750837;30;20056;-77
2022/10/30 02:52:08;;;;;;;1.25;0.20;;;7.20;99.90;;;;;;4751747;30;20058;-78
2022/10/30 02:54:36;;;;;;;0.73;0.20;;;7.20;99.90;;;;;;4766441;30;20051;-79
2022/10/30 02:57:05;;;;;;;0.50;0.50;;;7.20;99.90;;;;;;4775170;30;20056;-80
2022/10/30 02:59:32;;;;;;;1.45;0.30;;;7.20;99.90;;;;;;4763324;30;20482;-78
2022/10/30 03:02:00;;;;;;;0.43;0.30;;;7.20;99.90;;;;;;4748728;30;20064;-78
2022/10/30 03:04:27;;;;;;;0.55;0.20;;;7.20;99.90;;;;;;4749455;30;20545;-79
2022/10/30 03:06:55;;;;;;;0.85;0.10;;;7.20;99.90;;;;;;4749836;30;20052;-80
2022/10/30 03:09:23;;;;;;;2.70;0.10;;;7.20;99.90;;;;;;4764650;30;20056;-79
2022/10/30 03:11:51;;;;;;;0.45;0.28;;;7.10;99.90;;;;;;4750850;30;20583;-79
2022/10/30 03:14:19;;;;;;;2.05;0.20;;;7.10;99.90;;;;;;4764341;30;20080;-78
2022/10/30 03:16:46;;;;;;;1.45;0.20;;;7.00;99.90;;;;;;4765118;30;20047;-79
2022/10/30 03:19:16;;;;;;;2.42;0.20;;;7.00;99.90;;;;;;4767219;30;20134;-79
2022/10/30 03:21:43;;;;;;;0.30;0.20;;;7.00;99.90;;;;;;4781863;29;20052;-80
2022/10/30 03:24:14;;;;;;;1.70;0.52;;;7.00;99.90;;;;;;4766976;30;20059;-79
2022/10/30 03:26:41;;;;;;;1.75;0.80;;;7.00;99.90;;;;;;4767255;30;21119;-78
2022/10/30 03:29:09;;;;;;;0.35;0.20;;;7.00;99.90;;;;;;4768095;30;20059;-79
2022/10/30 03:31:37;;;;;;;0.32;0.15;;;7.00;99.90;;;;;;4767021;30;20721;-79
2022/10/30 03:34:19;;;;;;;;;;;7.00;99.90;;;;;;4767368;30;20051;-79
2022/10/30 03:36:47;;;;;;;0.40;0.30;;;7.00;99.90;;;;;;4767869;30;20407;-79
2022/10/30 03:39:14;;;;;;;0.43;0.30;;;7.00;99.90;;;;;;4768212;30;20172;-78
2022/10/30 03:41:44;;;;;;;0.43;0.30;;;7.00;99.90;;;;;;4770532;30;20062;-80
2022/10/30 03:44:12;;;;;;;2.35;0.30;;;7.00;99.90;;;;;;4755524;30;20460;-79
2022/10/30 03:46:41;;;;;;;0.20;0.17;;;6.90;99.90;;;;;;4770452;30;20067;-78
2022/10/30 03:49:27;;;;;;;0.93;0.25;;;6.80;99.90;;;;;;4770640;30;20535;-79
2022/10/30 03:51:56;;;;;;;0.65;0.25;;;6.80;99.90;;;;;;4769132;30;20060;-79
2022/10/30 03:54:25;;;;;;;0.88;0.43;;;6.70;99.90;;;;;;4754087;30;20577;-79
2022/10/30 03:56:53;;;;;;;1.15;0.70;;;6.60;99.90;;;;;;4770264;30;20425;-80
2022/10/30 03:59:22;;;;;;;0.93;0.20;;;6.60;99.90;;;;;;4771387;30;20513;-80
2022/10/30 04:02:17;;;;;;;2.97;0.30;;;6.50;99.90;;;;;;4772843;30;20070;-80
2022/10/30 04:04:46;;;;;;;0.50;0.20;;;6.40;99.90;;;;;;4781000;30;20067;-80
2022/10/30 04:07:15;;;;;;;0.30;0.30;;;6.30;99.90;;;;;;4756040;30;20059;-80
2022/10/30 04:09:42;;;;;;;0.60;0.25;;;6.20;99.90;;;;;;4771494;30;20525;-79
2022/10/30 04:12:09;;;;;;;0.82;0.30;;;6.20;99.90;;;;;;4755601;30;20060;-79
2022/10/30 04:14:37;;;;;;;1.23;0.73;;;6.20;99.90;;;;;;4754266;30;20052;-80
2022/10/30 04:17:05;;;;;;;2.78;0.35;;;6.20;99.90;;;;;;4768436;30;20056;-79
2022/10/30 04:19:33;;;;;;;2.50;0.30;;;6.00;99.90;;;;;;4756664;30;20056;-79
2022/10/30 04:22:01;;;;;;;0.82;0.60;;;5.70;99.90;;;;;;4770669;30;20555;-79
2022/10/30 04:24:28;;;;;;;2.35;0.73;;;5.30;99.90;;;;;;4760992;30;20111;-78
2022/10/30 04:26:56;;;;;;;1.20;0.38;;;5.10;99.90;;;;;;4767227;30;20430;-80
2022/10/30 04:29:24;;;;;;;0.43;0.32;;;5.00;99.90;;;;;;4751831;30;20579;-79
2022/10/30 04:31:51;;;;;;;0.85;0.30;;;4.90;99.90;;;;;;4767105;30;20573;-80
2022/10/30 04:34:19;;;;;;;3.42;0.45;;;4.70;99.90;;;;;;4753929;30;20059;-80
2022/10/30 04:36:48;;;;;;;2.20;0.30;;;4.60;99.90;;;;;;4752787;30;20522;-77
2022/10/30 04:39:15;;;;;;;0.30;0.30;;;4.60;99.90;;;;;;4766716;30;20056;-79
2022/10/30 04:41:43;;;;;;;1.17;0.50;;;4.50;99.90;;;;;;4766834;30;20538;-78
2022/10/30 04:44:17;;;;;;;0.40;0.32;;;4.50;99.90;;;;;;4766753;30;20052;-78
2022/10/30 04:46:44;;;;;;;3.40;0.20;;;4.40;99.90;;;;;;4766618;30;20082;-78
2022/10/30 04:49:12;;;;;;;2.35;0.35;;;4.30;99.90;;;;;;4736946;30;20071;-77
2022/10/30 04:51:40;;;;;;;0.55;0.40;;;4.30;99.90;;;;;;4768836;30;21705;-78
2022/10/30 04:54:09;;;;;;;1.10;0.38;;;4.20;99.90;;;;;;4769710;30;20134;-79
2022/10/30 04:56:38;;;;;;;1.63;0.43;;;4.20;99.90;;;;;;4767362;30;20074;-78
2022/10/30 04:59:06;;;;;;;2.10;0.57;;;4.10;99.90;;;;;;4768558;30;20063;-77
2022/10/30 05:01:33;;;;;;;0.73;0.30;;;4.00;99.90;;;;;;4765422;30;20063;-79
2022/10/30 05:04:02;;;;;;;1.10;0.30;;;4.00;99.90;;;;;;4769219;30;20612;-78
2022/10/30 05:06:31;;;;;;;2.63;0.50;;;4.00;99.90;;;;;;4769643;30;20114;-81
2022/10/30 05:08:59;;;;;;;1.10;0.68;;;3.90;99.90;;;;;;4770076;30;20127;-82
2022/10/30 05:11:37;;;;;;;3.50;1.00;;;3.90;99.90;;;;;;4752107;30;20071;-81
2022/10/30 05:14:04;;;;;;;1.73;0.30;;;3.90;99.90;;;;;;4752218;30;20056;-80
2022/10/30 05:16:32;;;;;;;0.75;0.40;;;3.90;99.90;;;;;;4767841;30;20074;-80
2022/10/30 05:19:02;;;;;;;2.47;0.60;;;3.90;99.90;;;;;;4769523;30;20060;-81
2022/10/30 05:21:29;;;;;;;2.03;0.50;;;3.90;99.90;;;;;;4768319;30;20044;-83
2022/10/30 05:23:59;;;;;;;0.75;0.52;;;3.90;99.90;;;;;;4773094;30;20052;-82
2022/10/30 05:26:27;;;;;;;1.98;0.63;;;4.00;99.90;;;;;;4755470;30;20107;-82
2022/10/30 05:28:56;;;;;;;1.17;0.52;;;4.00;99.90;;;;;;4769067;30;20575;-81
2022/10/30 05:31:23;;;;;;;2.72;0.40;;;4.10;99.90;;;;;;4753716;30;20155;-80
2022/10/30 05:34:06;;;;;;;4.97;0.50;;;4.20;99.90;;;;;;4777069;30;20056;-80
2022/10/30 05:36:34;;;;;;;1.92;0.40;;;4.20;99.90;;;;;;4767076;30;20131;-81
2022/10/30 05:39:03;;;;;;;2.17;0.30;;;4.30;99.90;;;;;;4767916;29;20091;-80
2022/10/30 05:41:36;;;;;;;2.83;0.60;;;4.40;99.90;;;;;;4767735;30;20088;-81
2022/10/30 05:44:05;;;;;;;1.83;0.35;;;4.50;99.90;;;;;;4755573;30;20059;-81
2022/10/30 05:46:34;;;;;;;1.45;0.30;;;4.60;99.90;;;;;;4768145;30;20062;-80
2022/10/30 05:49:31;;;;;;;1.95;0.40;;;4.60;99.90;;;;;;4767792;30;20152;-82
2022/10/30 05:52:08;;;;;;;1.38;0.47;;;4.70;99.90;;;;;;4772094;30;20060;-81
2022/10/30 05:54:40;;;;;;;3.05;0.47;;;4.80;99.90;;;;;;4752347;30;20127;-80
2022/10/30 05:57:13;;;;;;;3.10;1.40;;;4.90;99.90;;;;;;4767137;30;20139;-81
2022/10/30 05:59:43;;;;;;;2.08;0.93;;;4.90;99.90;;;;;;4753387;30;20068;-81
2022/10/30 06:02:14;;;;;;;1.40;0.60;;;5.00;99.90;;;;;;4776895;29;20052;-82
2022/10/30 06:04:46;;;;;;;0.93;0.57;;;4.90;99.90;;;;;;4772778;30;20060;-82
2022/10/30 06:07:15;;;;;;;2.08;0.75;;;4.90;99.90;;;;;;4754751;30;20059;-81
2022/10/30 06:09:44;;;;;;;1.63;0.40;;;4.90;99.90;;;;;;4765751;30;20086;-80
2022/10/30 06:12:21;;;;;;;2.53;0.40;;;4.80;99.90;;;;;;4769898;30;20066;-84
2022/10/30 06:15:06;;;;;;;;;;;4.80;99.90;;;;;;4763563;30;20067;-78
2022/10/30 06:17:37;;;;;;;2.53;0.63;;;4.70;99.90;;;;;;4763374;30;20490;-80
2022/10/30 06:20:15;;;;;;;0.63;0.47;;;4.70;99.90;;;;;;4765601;30;20155;-79
2022/10/30 06:22:54;;;;;;;3.80;0.52;;;4.70;99.90;;;;;;4785549;29;20061;-80
2022/10/30 06:25:25;;;;;;;4.32;0.98;;;4.60;99.90;;;;;;4767682;30;20051;-78
2022/10/30 06:28:00;;;;;;;3.03;0.63;;;4.60;99.90;;;;;;4768881;30;20162;-78
2022/10/30 06:30:31;;;;;;;3.50;0.80;;;4.60;99.90;;;;;;4771542;30;20055;-79
2022/10/30 06:32:59;;;;;;;1.50;0.70;;;4.60;99.90;;;;;;4759347;30;20154;-80
2022/10/30 06:35:29;;;;;;;1.55;1.10;;;4.60;99.90;;;;;;4772847;30;20047;-81
2022/10/30 06:37:59;;;;;;;1.48;0.70;;;4.60;99.90;;;;;;4772094;30;20054;-80
2022/10/30 06:40:28;;;;;;;1.48;0.30;;;4.60;99.90;;;;;;4797817;29;20062;-84
2022/10/30 06:43:18;;;;;;;2.20;0.50;;;4.60;99.90;;;;;;4769371;30;20055;-86
2022/10/30 06:45:58;;;;;;;1.63;0.63;;;4.70;99.90;;;;;;4758519;30;20421;-85
2022/10/30 06:48:25;;;;;;;0.30;0.20;;;4.70;99.90;;;;;;4769456;30;20048;-80
2022/10/30 06:51:01;;;;;;;0.98;0.38;;;4.70;99.90;;;;;;4769647;30;20067;-82
2022/10/30 06:53:33;;;;;;;1.48;0.40;;;4.70;99.90;;;;;;4750059;30;20440;-82
2022/10/30 06:56:22;;;;;;;2.70;0.60;;;4.70;99.90;;;;;;4764778;30;20048;-82
2022/10/30 06:59:08;;;;;;;2.83;0.20;;;4.70;99.90;;;;;;4764028;30;20064;-83
2022/10/30 07:01:59;;;;;;;1.25;0.40;;;4.70;99.90;;;;;;4755199;30;20055;-81
2022/10/30 07:04:27;;;;;;;1.85;0.63;;;4.70;99.90;;;;;;4767545;30;20071;-81
2022/10/30 07:06:58;;;;;;;2.47;0.95;;;4.70;99.90;;;;;;4766440;30;20456;-82
2022/10/30 07:09:30;;;;;;;0.63;0.40;;;4.70;99.90;;;;;;4767983;30;21137;-80
2022/10/30 07:11:58;;;;;;;1.95;0.57;;;4.70;99.90;;;;;;4779540;29;20567;-80
2022/10/30 07:14:34;;;;;;;0.75;0.43;;;4.70;99.90;;;;;;4765925;30;20075;-82
2022/10/30 07:17:30;;;;;;;1.05;0.60;;;4.70;99.90;;;;;;4769082;30;20087;-81
2022/10/30 07:20:01;;;;;;;0.38;0.30;;;4.70;99.90;;;;;;4755422;30;20078;-82
2022/10/30 07:22:32;;;;;;;1.95;0.40;;;4.70;99.90;;;;;;4772985;30;20433;-82
2022/10/30 07:25:01;;;;;;;1.27;0.70;;;4.80;99.90;;;;;;4774316;30;20054;-85
2022/10/30 07:27:47;;;;;;;1.45;0.35;;;4.80;99.90;;;;;;4770116;30;20056;-85
2022/10/30 07:30:33;;;;;;;0.70;0.40;;;4.80;99.90;;;;;;4771622;30;20063;-85
2022/10/30 07:33:24;;;;;;;2.28;0.40;;;4.80;99.90;;;;;;4773433;30;20059;-82
2022/10/30 07:36:11;;;;;;;1.27;0.52;;;4.80;99.90;;;;;;4775437;30;20119;-85
2022/10/30 07:38:55;;;;;;;0.80;0.40;;;4.80;99.90;;;;;;4755617;30;20068;-81
2022/10/30 07:41:31;;;;;;;0.40;0.30;;;4.80;99.90;;;;;;4764028;30;20518;-86
2022/10/30 07:44:33;;;;;;;0.77;0.30;;;4.80;99.90;;;;;;4767589;29;20064;-80
2022/10/30 07:47:20;;;;;;;0.55;0.40;;;5.30;99.90;;;;;;4787626;29;20056;-84
2022/10/30 07:50:11;;;;;;;1.48;0.70;;;6.80;99.90;;;;;;4787400;30;20066;-81
2022/10/30 07:52:39;;;;;;;4.95;0.63;;;8.80;99.90;;;;;;4764958;30;20071;-79
2022/10/30 07:55:09;;;;;;;0.70;0.43;;;10.20;99.30;;;;;;4764677;30;20448;-79
2022/10/30 07:57:48;;;;;;;1.25;0.43;;;11.10;93.20;;;;;;4767764;30;20063;-80
2022/10/30 08:00:22;;;;;;;0.75;0.45;;;12.00;88.90;;;;;;4767022;30;20058;-82
2022/10/30 08:02:59;;;;;;;3.28;0.50;;;12.80;85.20;;;;;;4765442;30;20116;-81
2022/10/30 08:05:45;;;;;;;2.92;0.50;;;13.50;79.90;;;;;;4780353;29;20150;-80
2022/10/30 08:08:23;;;;;;;4.53;1.45;;;14.20;73.70;;;;;;4774852;29;20047;-81
2022/10/30 08:11:01;;;;;;;2.95;2.50;;;14.80;69.30;;;;;;4764630;30;20133;-82
2022/10/30 08:13:30;;;;;;;2.40;0.52;;;15.10;66.10;;;;;;4765141;30;20060;-82
2022/10/30 08:15:57;;;;;;;0.75;0.40;;;15.30;62.40;;;;;;4773685;30;20525;-83
2022/10/30 08:18:25;;;;;;;2.20;1.10;;;15.30;61.40;;;;;;4763777;30;20060;-80
2022/10/30 08:20:55;;;;;;;0.80;0.65;;;15.60;62.20;;;;;;4754850;30;20473;-83
2022/10/30 08:23:24;;;;;;;1.10;0.30;;;15.90;58.70;;;;;;4768752;30;20091;-80
2022/10/30 08:26:00;;;;;;;1.23;0.60;;;15.80;58.60;;;;;;4772312;30;20518;-85
2022/10/30 08:28:29;;;;;;;4.10;3.08;;;16.10;58.40;;;;;;4773708;30;20048;-78
2022/10/30 08:30:58;;;;;;;2.35;2.13;;;16.10;56.50;;;;;;4761967;30;20059;-80
2022/10/30 08:33:46;;;;;;;4.68;1.65;;;16.40;57.20;;;;;;4767054;30;20063;-80
2022/10/30 08:36:53;;;;;;;1.40;0.90;;;16.80;56.70;;;;;;4729832;30;20056;-78
2022/10/30 08:39:22;;;;;;;2.47;0.80;;;17.00;55.20;;;;;;4736760;30;20091;-82
2022/10/30 08:41:57;;;;;;;5.55;0.98;;;16.90;54.60;;;;;;4746781;30;20078;-79
2022/10/30 08:44:24;;;;;;;1.77;0.88;;;17.00;53.50;;;;;;4783617;29;20056;-79
2022/10/30 08:47:18;;;;;;;1.92;0.50;;;16.50;53.40;;;;;;4789069;30;20055;-78
2022/10/30 08:49:46;;;;;;;2.70;0.70;;;16.50;53.10;;;;;;4783163;29;20055;-80
2022/10/30 08:52:18;;;;;;;0.63;0.50;;;16.00;53.80;;;;;;4758152;30;20060;-79
2022/10/30 08:54:53;;;;;;;3.08;0.40;;;15.90;54.20;;;;;;4774889;30;20124;-80
2022/10/30 08:57:21;;;;;;;1.75;0.70;;;16.20;53.70;;;;;;4779730;29;20054;-78
2022/10/30 08:59:50;;;;;;;1.95;0.60;;;16.60;53.90;;;;;;4770208;30;20040;-82
2022/10/30 09:02:49;;;;;;;2.10;0.88;;;17.10;53.30;;;;;;4749103;30;20063;-81
2022/10/30 09:05:37;;;;;;;4.78;0.70;;;17.70;51.30;;;;;;4771146;30;20075;-80
2022/10/30 09:08:14;;;;;;;0.88;0.60;;;18.10;51.20;;;;;;4784454;30;20144;-82
2022/10/30 09:11:11;;;;;;;1.85;0.45;;;18.30;49.80;;;;;;4758028;30;20385;-81
2022/10/30 09:13:39;;;;;;;2.92;0.50;;;18.50;48.90;;;;;;4783342;29;20056;-78
2022/10/30 09:16:08;;;;;;;1.20;0.40;;;18.10;48.00;;;;;;4773024;30;20063;-84
2022/10/30 09:18:38;;;;;;;3.03;0.75;;;17.50;48.40;;;;;;4769763;30;20079;-82
2022/10/30 09:21:09;;;;;;;2.40;0.73;;;17.40;49.80;;;;;;4770324;30;20083;-82
2022/10/30 09:23:44;;;;;;;0.98;0.57;;;17.00;49.60;;;;;;4779853;29;20060;-79
2022/10/30 09:26:35;;;;;;;1.33;0.70;;;16.40;50.50;;;;;;4771549;30;20099;-81
2022/10/30 09:29:24;;;;;;;1.77;0.60;;;16.30;50.80;;;;;;4772459;29;20051;-82
2022/10/30 09:32:03;;;;;;;3.85;0.60;;;16.00;50.70;;;;;;4767424;30;20086;-80
2022/10/30 09:34:32;;;;;;;1.80;0.52;;;15.40;51.30;;;;;;4780992;29;20082;-79
2022/10/30 09:37:07;;;;;;;3.05;1.23;;;14.80;51.40;;;;;;4767660;30;20340;-82
2022/10/30 09:39:39;;;;;;;1.45;0.20;;;14.40;53.10;;;;;;4767842;30;20515;-81
2022/10/30 09:42:24;;;;;;;1.58;0.47;;;13.90;52.70;;;;;;4772657;30;20548;-81
2022/10/30 09:45:12;;;;;;;1.92;0.80;;;13.40;53.30;;;;;;4769459;30;20475;-82
2022/10/30 09:47:55;;;;;;;0.65;0.65;;;12.90;54.00;;;;;;4788791;29;20059;-82
2022/10/30 09:50:31;;;;;;;1.10;0.70;;;13.30;54.80;;;;;;4778871;30;20138;-84
2022/10/30 09:53:12;;;;;;;0.30;0.20;;;14.00;54.40;;;;;;4775293;30;20075;-81
2022/10/30 09:55:52;;;;;;;0.65;0.40;;;14.60;52.90;;;;;;4772250;30;20150;-82
2022/10/30 09:58:30;;;;;;;0.73;0.40;;;15.00;52.00;;;;;;4770020;30;20592;-81
2022/10/30 10:01:18;;;;;;;4.15;0.50;;;15.10;50.90;;;;;;4768464;30;20048;-81
2022/10/30 10:04:02;;;;;;;3.65;0.60;;;15.60;51.60;;;;;;4768911;30;20059;-85
2022/10/30 10:06:53;;;;;;;1.08;0.45;;;16.30;50.70;;;;;;4773291;30;20138;-82
2022/10/30 10:10:01;;;;;;;3.92;0.43;;;16.90;49.20;;;;;;4742498;30;20044;-80
2022/10/30 10:12:56;;;;;;;5.45;0.55;;;17.40;48.10;;;;;;4756275;30;20804;-80
2022/10/30 10:15:34;;;;;;;2.67;0.32;;;17.20;47.90;;;;;;4767327;30;20067;-81
2022/10/30 10:18:05;;;;;;;1.58;0.57;;;17.10;48.00;;;;;;4771827;30;20152;-82
2022/10/30 10:20:37;;;;;;;1.55;0.45;;;17.20;48.00;;;;;;4771681;30;20066;-83
2022/10/30 10:23:16;;;;;;;1.90;0.70;;;17.20;47.60;;;;;;4771514;30;20605;-82
2022/10/30 10:25:51;;;;;;;0.50;0.50;;;17.40;47.80;;;;;;4770028;30;20059;-84
2022/10/30 10:28:36;;;;;;;0.70;0.50;;;17.60;47.50;;;;;;4782873;29;20070;-80
2022/10/30 10:31:15;;;;;;;1.25;0.43;;;17.60;47.90;;;;;;4771622;30;20143;-84
2022/10/30 10:33:56;;;;;;;1.80;0.40;;;17.90;46.90;;;;;;4772189;30;20119;-79
2022/10/30 10:36:34;;;;;;;2.15;0.40;;;17.40;46.20;;;;;;4774113;29;20056;-79
2022/10/30 10:39:21;;;;;;;1.73;0.47;;;16.70;47.30;;;;;;4766317;30;20055;-80
2022/10/30 10:41:57;;;;;;;0.98;0.70;;;16.80;48.20;;;;;;4768783;30;20052;-79
2022/10/30 10:44:40;;;;;;;3.90;0.35;;;16.60;48.00;;;;;;4765580;30;20079;-78
2022/10/30 10:47:36;;;;;;;1.95;0.40;;;16.60;47.90;;;;;;4781358;29;20074;-80
2022/10/30 10:50:18;;;;;;;2.70;0.80;;;16.80;47.70;;;;;;4766167;30;20573;-79
2022/10/30 10:52:50;;;;;;;1.35;0.40;;;16.50;47.70;;;;;;4765874;30;20398;-79
2022/10/30 10:55:20;;;;;;;0.93;0.60;;;16.50;47.90;;;;;;4763575;30;20065;-80
2022/10/30 10:57:48;;;;;;;1.38;0.57;;;16.40;47.30;;;;;;4774262;30;20058;-82
2022/10/30 11:00:19;;;;;;;0.68;0.50;;;15.70;47.90;;;;;;4764691;30;20137;-78
2022/10/30 11:02:54;;;;;;;0.90;0.50;;;15.90;48.60;;;;;;4780626;29;20051;-81
2022/10/30 11:05:32;;;;;;;0.57;0.30;;;16.50;47.70;;;;;;4755357;30;20603;-78
2022/10/30 11:08:05;;;;;;;1.65;0.35;;;16.30;46.80;;;;;;4786061;29;20055;-80
2022/10/30 11:10:36;;;;;;;0.50;0.45;;;15.90;47.50;;;;;;4783479;30;20071;-83
2022/10/30 11:13:03;;;;;;;1.10;0.40;;;15.50;47.50;;;;;;4767930;30;20105;-82
2022/10/30 11:15:40;;;;;;;0.30;0.25;;;15.80;48.20;;;;;;4771861;30;20597;-85
2022/10/30 11:18:09;;;;;;;0.73;0.70;;;16.00;47.30;;;;;;4776015;30;20047;-86
2022/10/30 11:20:44;;;;;;;4.80;0.52;;;16.40;47.20;;;;;;4756390;30;20508;-83
2022/10/30 11:23:37;;;;;;;1.17;0.40;;;16.70;46.40;;;;;;4761146;30;20417;-76
2022/10/30 11:26:24;;;;;;;0.82;0.30;;;16.70;46.60;;;;;;4763552;30;20061;-82
2022/10/30 11:28:54;;;;;;;5.30;0.40;;;17.30;45.90;;;;;;4763948;30;20118;-83
2022/10/30 11:31:26;;;;;;;2.78;0.30;;;17.80;45.00;;;;;;4749055;30;20056;-85
2022/10/30 11:33:54;;;;;;;1.23;0.50;;;18.00;45.00;;;;;;4760958;30;20059;-81
2022/10/30 11:36:24;;;;;;;8.10;0.88;;;17.70;45.10;;;;;;4770190;30;20070;-80
2022/10/30 11:38:53;;;;;;;5.00;0.40;;;17.90;45.00;;;;;;4770785;30;20154;-82
2022/10/30 11:41:21;;;;;;;0.82;0.30;;;18.10;44.60;;;;;;4769057;29;20510;-81
2022/10/30 11:43:49;;;;;;;3.63;0.40;;;18.50;43.90;;;;;;4760189;30;20115;-79
2022/10/30 11:46:24;;;;;;;1.33;0.30;;;18.80;43.70;;;;;;4759466;30;20063;-83
2022/10/30 11:48:54;;;;;;;0.40;0.40;;;18.60;43.50;;;;;;4764602;30;20094;-80
2022/10/30 11:51:35;;;;;;;1.88;0.30;;;18.40;43.30;;;;;;4765006;30;20052;-81
2022/10/30 11:54:03;;;;;;;0.32;0.30;;;18.30;43.70;;;;;;4766137;30;20062;-83
2022/10/30 11:56:32;;;;;;;0.60;0.30;;;18.10;43.90;;;;;;4769391;30;20047;-83
2022/10/30 11:59:02;;;;;;;0.88;0.50;;;17.50;43.90;;;;;;4761675;30;20120;-79
2022/10/30 12:01:31;;;;;;;4.55;0.63;;;16.70;44.40;;;;;;4775900;30;20047;-83
2022/10/30 12:04:14;;;;;;;2.65;0.30;;;17.00;45.10;;;;;;4774261;30;20118;-83
2022/10/30 12:06:42;;;;;;;;;;;17.20;45.00;;;;;;4787891;30;20087;-81
2022/10/30 12:09:14;;;;;;;0.47;0.30;;;17.60;44.10;;;;;;4769731;29;20007;-80
2022/10/30 12:11:43;;;;;;;;;;;17.90;44.40;;;;;;4762675;30;20059;-82
2022/10/30 12:14:19;;;;;;;2.88;0.60;;;18.20;43.80;;;;;;4761982;30;20347;-82
2022/10/30 12:16:50;;;;;;;3.00;0.77;;;18.10;43.50;;;;;;4762657;30;20052;-82
2022/10/30 12:19:21;;;;;;;3.80;0.43;;;17.60;44.00;;;;;;4774075;30;20052;-86
2022/10/30 12:21:52;;;;;;;2.80;0.32;;;16.60;44.90;;;;;;4781754;30;20109;-81
2022/10/30 12:24:26;;;;;;;2.50;0.40;;;15.40;46.10;;;;;;4768606;30;20426;-79
2022/10/30 12:26:55;;;;;;;2.33;0.50;;;14.40;47.60;;;;;;4774602;30;20047;-88
2022/10/30 12:29:35;;;;;;;0.55;0.55;;;14.20;48.60;;;;;;4770038;30;20663;-83
2022/10/30 12:32:08;;;;;;;1.60;0.65;;;14.00;48.70;;;;;;4782155;29;20058;-85
2022/10/30 12:34:42;;;;;;;0.47;0.40;;;14.40;48.40;;;;;;4774565;30;20464;-86
2022/10/30 12:37:16;;;;;;;0.45;0.30;;;14.80;48.00;;;;;;4786733;30;20056;-82
2022/10/30 12:40:00;;;;;;;0.55;0.40;;;15.00;47.70;;;;;;4774249;30;20102;-88
2022/10/30 12:42:31;;;;;;;3.55;0.30;;;14.90;47.40;;;;;;4760220;30;20064;-79
2022/10/30 12:45:09;;;;;;;0.60;0.30;;;14.00;48.00;;;;;;4765244;30;20144;-80
2022/10/30 12:47:44;;;;;;;0.68;0.52;;;13.20;49.60;;;;;;4765146;30;20071;-80
2022/10/30 12:50:20;;;;;;;0.98;0.47;;;12.70;50.50;;;;;;4770308;30;20058;-79
2022/10/30 12:52:56;;;;;;;2.42;0.60;;;11.90;51.20;;;;;;4766967;30;20503;-77
2022/10/30 12:55:28;;;;;;;9.98;0.90;;;10.80;52.90;;;;;;4789869;29;20054;-79
2022/10/30 12:58:03;;;;;;;0.20;0.20;;;9.90;54.80;;;;;;4776378;29;20060;-84
2022/10/30 13:00:33;;;;;;;0.30;0.20;;;9.10;56.60;;;;;;4768198;30;20052;-82
2022/10/30 13:03:22;;;;;;;1.05;0.30;;;8.50;58.70;;;;;;4782221;29;20066;-82
2022/10/30 13:05:54;;;;;;;2.15;0.60;;;8.10;59.50;;;;;;4769441;30;20081;-85
2022/10/30 13:08:31;;;;;;;2.28;0.60;;;7.60;60.20;;;;;;4780039;30;20067;-85
2022/10/30 13:11:04;;;;;;;1.23;0.60;;;7.40;61.50;;;;;;4791190;29;20501;-83
2022/10/30 13:13:37;;;;;;;1.23;0.57;;;7.20;62.30;;;;;;4778415;30;20056;-86
2022/10/30 13:16:10;;;;;;;;;;;7.10;62.70;;;;;;4757214;30;20052;-82
2022/10/30 13:18:39;;;;;;;0.73;0.40;;;6.90;63.30;;;;;;4772324;30;20421;-87
2022/10/30 13:21:23;;;;;;;0.63;0.30;;;6.80;64.20;;;;;;4788997;30;20063;-85
2022/10/30 13:23:55;;;;;;;1.08;0.40;;;6.60;65.00;;;;;;4769757;30;20146;-82
2022/10/30 13:26:34;;;;;;;0.63;0.35;;;6.60;66.00;;;;;;4770721;30;20081;-84
2022/10/30 13:29:15;;;;;;;2.47;0.70;;;6.50;65.70;;;;;;4770682;30;20065;-85
2022/10/30 13:31:52;;;;;;;1.08;0.65;;;6.50;66.30;;;;;;4779227;30;20059;-78